Terminal Aerodrome Forecast
Issued by NWS

Home | Current Version | Previous Version | Text Only | Print | Product List | Glossary On
Versions: 1 2 3 4 5 6 7 8 9 10 11 12 13 14 15
000
FTUS43 KEAX 011500 AAB
TAFMKC
TAF AMD
KMKC 011521Z 0115/0212 14010KT P6SM VCSH SCT025 OVC080
      TEMPO 0115/0116 2SM -TSRA OVC035CB
     FM011700 20009KT P6SM BKN050
     FM012300 18007KT P6SM VCTS BKN040CB
     FM020400 15004KT 3SM TSRA BR SCT025 OVC040CB=

USA.gov is the U.S. government's official web portal to all federal, state and local government web resources and services.